»·PEaware :: N904CP KEMT-KSAN

N904CP :: KEMT-KSAN

FLIGHT INFORMATION

Flight Status: Arrived
Operator: Privately registered:
United States
More flights under this callsign
Pilot: Joseph G. (11198)
Aircraft: CESSNA 208 CARAVAN
(C208)
More flights by this aircraft type
Origin: KEMT El Monte
United States
Destination: KSAN San Diego Intl-Lindbergh
United States
More flights between these airports :: More routes between these airports
Route: +KEMT PDZ V186 HAILE V66 MZB KSAN
File this flight plan on PilotEdge
Remarks:
Altitude:
(Current/Filed)
8,000ft
Speed:
(Current/Filed)
165kts
Departed: 11-Oct-18 04:04 PM
Arrived: 11-Oct-18 05:02 PM
Distance/Time
Traveled:
92nm/0:57
Distance/Time
To Go:
Arrived

Flight Plot

Page will automatically refresh every two minutes.

Flight plan parsing failed; only flown route is shown


Map Options




Map Legend


Flown Route
Filed Route
Departure Airport
Arrival Airport
Navaid (VOR, NDB)
Fix

Horizontal Profiles

Position Reports

Time Latitude Longitude Heading Altitude Ground
Speed
11-Oct-18 15:47 34.088659 -118.032302 294 294ft 0kts
11-Oct-18 15:48 34.088659 -118.032302 294 294ft 0kts
11-Oct-18 15:49 34.088659 -118.032302 294 294ft 0kts
11-Oct-18 15:50 34.088659 -118.032302 294 294ft 0kts
11-Oct-18 15:51 34.088659 -118.032302 294 294ft 0kts
11-Oct-18 15:52 34.088659 -118.032302 294 294ft 0kts
11-Oct-18 15:53 34.088659 -118.032302 294 294ft 0kts
11-Oct-18 15:54 34.088659 -118.032302 294 294ft 0kts
11-Oct-18 15:55 34.088659 -118.032302 294 294ft 0kts
11-Oct-18 15:56 34.088659 -118.032302 294 294ft 0kts
11-Oct-18 15:57 34.088659 -118.032302 294 294ft 0kts
11-Oct-18 15:58 34.088659 -118.032302 294 294ft 0kts
11-Oct-18 15:59 34.088659 -118.032302 294 294ft 0kts
11-Oct-18 16:00 34.088659 -118.032302 294 294ft 0kts
11-Oct-18 16:01 34.088659 -118.032302 294 294ft 0kts
11-Oct-18 16:02 34.088670 -118.032330 293 294ft 2kts
11-Oct-18 16:03 34.091259 -118.031164 22 296ft 21kts
11-Oct-18 16:04 34.090694 -118.031583 274 295ft 0kts
11-Oct-18 16:05 34.090694 -118.031583 274 295ft 0kts
11-Oct-18 16:06 34.087902 -118.033770 207 291ft 72kts
11-Oct-18 16:07 34.070591 -118.041274 192 890ft 123kts
11-Oct-18 16:08 34.042160 -118.045974 190 1653ft 140kts
11-Oct-18 16:09 34.010352 -118.057254 200 1695ft 163kts
11-Oct-18 16:10 33.980055 -118.068129 175 2081ft 150kts
11-Oct-18 16:11 33.956047 -118.062270 201 3016ft 131kts
11-Oct-18 16:12 33.940869 -118.044840 100 3938ft 137kts
11-Oct-18 16:13 33.937645 -118.014201 98 4895ft 131kts
11-Oct-18 16:14 33.934876 -117.984304 100 5874ft 124kts
11-Oct-18 16:15 33.932614 -117.953236 90 6935ft 128kts
11-Oct-18 16:16 33.932901 -117.917774 92 7619ft 151kts
11-Oct-18 16:17 33.933161 -117.872340 81 7225ft 176kts
11-Oct-18 16:18 33.931032 -117.823030 96 6984ft 171kts
11-Oct-18 16:19 33.928276 -117.773566 95 6982ft 166kts
11-Oct-18 16:20 33.926279 -117.724644 95 6992ft 166kts
11-Oct-18 16:21 33.924357 -117.676507 93 6991ft 166kts
11-Oct-18 16:22 33.922530 -117.629182 94 6993ft 167kts
11-Oct-18 16:23 33.920253 -117.570608 93 7444ft 153kts
11-Oct-18 16:24 33.915018 -117.529190 136 7852ft 160kts
11-Oct-18 16:25 33.881739 -117.499162 147 8319ft 164kts
11-Oct-18 16:26 33.844589 -117.467863 146 8824ft 163kts
11-Oct-18 16:27 33.806330 -117.435864 145 8994ft 173kts
11-Oct-18 16:28 33.766428 -117.402442 145 8987ft 176kts
11-Oct-18 16:29 33.726386 -117.368982 145 8993ft 176kts
11-Oct-18 16:30 33.689231 -117.337961 146 8990ft 175kts
11-Oct-18 16:31 33.642450 -117.298956 146 8996ft 175kts
11-Oct-18 16:32 33.609194 -117.271259 146 9000ft 175kts
11-Oct-18 16:33 33.569870 -117.238509 146 8998ft 174kts
11-Oct-18 16:34 33.530079 -117.205460 146 8999ft 175kts
11-Oct-18 16:35 33.490617 -117.172711 147 8998ft 174kts
11-Oct-18 16:36 33.446353 -117.154740 171 9000ft 171kts
11-Oct-18 16:37 33.399484 -117.144791 172 8996ft 171kts
11-Oct-18 16:38 33.352945 -117.134964 171 9003ft 165kts
11-Oct-18 16:39 33.308244 -117.125480 171 9008ft 163kts
11-Oct-18 16:40 33.263956 -117.116071 172 9007ft 162kts
11-Oct-18 16:41 33.221108 -117.107024 172 9001ft 162kts
11-Oct-18 16:42 33.178046 -117.098044 172 8996ft 164kts
11-Oct-18 16:43 33.134373 -117.088820 172 8995ft 164kts
11-Oct-18 16:44 33.096712 -117.054550 139 8562ft 180kts
11-Oct-18 16:45 33.059742 -117.013382 139 8062ft 184kts
11-Oct-18 16:46 33.022568 -116.971816 139 7561ft 183kts
11-Oct-18 16:47 32.985467 -116.930541 139 7061ft 183kts
11-Oct-18 16:48 32.949629 -116.890525 139 7008ft 173kts
11-Oct-18 16:49 32.914811 -116.851677 139 6999ft 170kts
11-Oct-18 16:50 32.881635 -116.816309 161 6979ft 168kts
11-Oct-18 16:51 32.836857 -116.821199 190 6982ft 163kts
11-Oct-18 16:52 32.789371 -116.829742 190 6214ft 182kts
11-Oct-18 16:53 32.739709 -116.838700 190 5352ft 180kts
11-Oct-18 16:54 32.693691 -116.850173 228 4977ft 162kts
11-Oct-18 16:55 32.681829 -116.900209 251 4982ft 158kts
11-Oct-18 16:56 32.675458 -116.950389 282 4614ft 169kts
11-Oct-18 16:57 32.686384 -116.995310 285 4155ft 144kts
11-Oct-18 16:58 32.695776 -117.033997 287 3572ft 136kts
11-Oct-18 16:59 32.705357 -117.073861 287 2348ft 139kts
11-Oct-18 17:00 32.712949 -117.104926 285 1565ft 99kts
11-Oct-18 17:01 32.719856 -117.133317 286 995ft 102kts
11-Oct-18 17:02 32.727009 -117.162760 287 421ft 100kts
11-Oct-18 17:03 32.731504 -117.181484 288 19ft 61kts
11-Oct-18 17:04 32.734180 -117.188040 6 18ft 10kts
11-Oct-18 17:05 32.734708 -117.186464 107 18ft 0kts
11-Oct-18 17:06 32.732421 -117.176641 194 22ft 0kts
11-Oct-18 17:07 32.732421 -117.176641 194 22ft 0kts
11-Oct-18 17:08 32.732421 -117.176641 194 22ft 0kts
11-Oct-18 17:09 32.732421 -117.176641 194 22ft 0kts
11-Oct-18 17:10 32.732421 -117.176641 194 22ft 0kts
11-Oct-18 17:11 32.732997 -117.174788 102 28ft 0kts
11-Oct-18 17:12 32.732421 -117.176641 194 22ft 0kts
11-Oct-18 17:13 32.732421 -117.176641 194 22ft 0kts
11-Oct-18 17:14 32.732421 -117.176641 194 22ft 0kts
11-Oct-18 17:15 32.732421 -117.176641 194 22ft 0kts
11-Oct-18 17:16 32.732421 -117.176641 194 22ft 0kts
11-Oct-18 17:17 32.732421 -117.176641 194 22ft 0kts
11-Oct-18 17:18 32.732421 -117.176641 194 22ft 0kts
11-Oct-18 17:19 32.732421 -117.176641 194 22ft 0kts

Navigation Log

Ident Type
Flight plan parsing failed, navigation log unavailable